^^

Metar de toute la France(point de départ, Chateauroux, classé dans l'ordre alphabétique actualisée toutes les 30 minutes)






LFBA - Agen/, France
Distance de la station: SSO 307km
Mise à jour: 20/12/2014 23:30
nuageux
nuageux
 Wind from O
Vent: O 6 km/h
Température: 6°C
Point de Rosée: 2°C
Humidité: 76%
Baromètre: 1037 hPa
Nuages: nuageux
Visibilité: 10 km
Nuages details: Quelques Nuages 1097 m
nuageux 7315 m
2014/12/20 22:30 LFBA 202230Z AUTO 26003KT 9999 FEW036 BKN240 06/02 Q1037
LFLP - Annecy/, France
Distance de la station: ESE 352km
Mise à jour: 20/12/2014 23:30
partiellement nuageux
partiellement nuageux
 Wind from SO
Vent: SO 6 km/h
Température: 4°C
Point de Rosée: 0°C
Humidité: 75%
Baromètre: 1033 hPa
Nuages: partiellement nuageux
Visibilité: 10 km
Nuages details: partiellement nuageux 1463 m
2014/12/20 22:30 LFLP 202230Z AUTO 22003KT 9999 SCT048 04/00 Q1033
 
LFOA - Avord/ , France
Distance de la station: ENE 76km
Mise à jour: 20/12/2014 23:30
Couvert
Couvert
 Wind from OSO
Vent: OSO 11 km/h
Température: 6°C
Wind Chill: 4°C
Point de Rosée: 4°C
Humidité: 87%
Baromètre: 1035 hPa
Nuages: Couvert
Visibilité: 10 km
Nuages details: nuageux 1402 m
Couvert 1585 m
2014/12/20 22:30 LFOA 202230Z AUTO 24006KT 9999 BKN046 OVC052 06/04 Q1035
LFSB - Bale/, France
Distance de la station: ENE 449km
Mise à jour: 20/12/2014 23:30
nuageux
nuageux
 Wind from O
Vent: O 15 km/h
Température: 5°C
Wind Chill: 2°C
Point de Rosée: 2°C
Humidité: 81%
Baromètre: 1033 hPa
Nuages: nuageux
Visibilité: 10 km
Nuages details: Quelques Nuages 610 m
partiellement nuageux 1219 m
nuageux 1829 m
2014/12/20 22:30 LFSB 202230Z 27008KT 9999 FEW020 SCT040 BKN060 05/02 Q1033 NOSIG
 
LFOB - Beauvais/, France
Distance de la station: N 296km
Mise à jour: 20/12/2014 23:30
nuageux
nuageux
 Wind from OSO
Vent: OSO 11 km/h
Température: 6°C
Wind Chill: 4°C
Point de Rosée: 4°C
Humidité: 87%
Baromètre: 1032 hPa
Nuages: nuageux
Visibilité: 10 km
Nuages details: nuageux 945 m
nuageux 1280 m
2014/12/20 22:30 LFOB 202230Z AUTO 25006KT 9999 BKN031 BKN042 06/04 Q1032
LFBE - Bergerac/, France
Distance de la station: SSO 240km
Mise à jour: 20/12/2014 23:30
partiellement nuageux
partiellement nuageux
 Wind from SO
Vent: SO 6 km/h
Température: 3°C
Point de Rosée: 1°C
Humidité: 87%
Baromètre: 1037 hPa
Nuages: partiellement nuageux
Visibilité: 10 km
Nuages details: partiellement nuageux 1311 m
2014/12/20 22:30 LFBE 202230Z AUTO 22003KT 9999 SCT043 03/01 Q1037
 
LFMU - Beziers/, France
Distance de la station: SSE 411km
Mise à jour: 20/12/2014 23:30
partiellement nuageux
partiellement nuageux
 Wind from O
Vent: O 7 km/h
Température: 8°C
Wind Chill: 7°C
Point de Rosée: 2°C
Humidité: 66%
Baromètre: 1032 hPa
Nuages: partiellement nuageux
Visibilité: 10 km
2014/12/20 22:30 LFMU 202230Z AUTO 28004KT 9999 NSC 08/02 Q1032
LFBZ - Biarritz/, France
Distance de la station: SO 449km
Mise à jour: 20/12/2014 23:30
nuageux
nuageux
 Wind from ESE
Vent: ESE 11 km/h
Température: 10°C
Wind Chill: 8°C
Point de Rosée: 9°C
Humidité: 94%
Baromètre: 1036 hPa
Nuages: nuageux
Visibilité: 10 km
Nuages details: Quelques Nuages 945 m
nuageux 1250 m
nuageux 1494 m
2014/12/20 22:30 LFBZ 202230Z AUTO 12006KT 9999 FEW031 BKN041 BKN049 10/09 Q1036
 
LFBD - Bordeaux/, France
Distance de la station: SO 289km
Mise à jour: 20/12/2014 23:30
nuageux
nuageux
 Wind from variable
Vent: variable 4 km/h
Température: 7°C
Point de Rosée: 4°C
Humidité: 81%
Baromètre: 1037 hPa
Nuages: nuageux
Visibilité: 10 km
Nuages details: nuageux 1250 m
2014/12/20 22:30 LFBD 202230Z AUTO VRB02KT 9999 BKN041 07/04 Q1037
LFAQ - Bray/, France
Distance de la station: N 358km
Mise à jour: 20/12/2014 23:30
partiellement nuageux
partiellement nuageux
 Wind from OSO
Vent: OSO 9 km/h
Température: 3°C
Wind Chill: 0°C
Point de Rosée: 1°C
Humidité: 87%
Baromètre: 1031 hPa
Nuages: partiellement nuageux
Visibilité: 10 km
2014/12/20 22:30 LFAQ 202230Z AUTO 25005KT 9999 NSC 03/01 Q1031
 
LFRB - Brest/, France
Distance de la station: ONO 492km
Mise à jour: 20/12/2014 23:30
Couvert
Couvert
 Wind from OSO
Vent: OSO 6 km/h
Température: 8°C
Point de Rosée: 6°C
Humidité: 87%
Baromètre: 1035 hPa
Nuages: Couvert
Visibilité: 10 km
Nuages details: Quelques Nuages 518 m
Couvert 701 m
2014/12/20 22:30 LFRB 202230Z 25003KT 9999 FEW017 OVC023 08/06 Q1035 NOSIG
LFRK - Caen/, France
Distance de la station: NNO 306km
Mise à jour: 20/12/2014 23:30
Couvert
Couvert
 Wind from O
Vent: O 9 km/h
Température: 8°C
Wind Chill: 6°C
Point de Rosée: 4°C
Humidité: 76%
Baromètre: 1034 hPa
Nuages: Couvert
Visibilité: 10 km
Nuages details: Couvert 1189 m
2014/12/20 22:30 LFRK 202230Z AUTO 26005KT 230V300 9999 OVC039 08/04 Q1034
 
LFMK - Carcassonne/, France
Distance de la station: S 403km
Mise à jour: 20/12/2014 23:30
Couvert
Couvert
 Wind from O
Vent: O 28 km/h
Température: 9°C
Wind Chill: 6°C
Point de Rosée: 4°C
Humidité: 71%
Baromètre: 1035 hPa
Nuages: Couvert
Visibilité: 10 km
Nuages details: Couvert 853 m
2014/12/20 22:30 LFMK 202230Z AUTO 28015KT 9999 OVC028 09/04 Q1035
LFMV - Caumont/, France
Distance de la station: SE 410km
Mise à jour: 20/12/2014 23:30
partiellement nuageux
partiellement nuageux
 Wind from NNO
Vent: NNO 44 km/h, Rafale: 67 km/h
Température: 8°C
Wind Chill: 3°C
Point de Rosée: 0°C
Humidité: 57%
Baromètre: 1029 hPa
Nuages: partiellement nuageux
Visibilité: 10 km
2014/12/20 22:30 LFMV 202230Z AUTO 34024G36KT 9999 NSC 08/00 Q1029
 
LFBC - Cazaux/, France
Distance de la station: SO 336km
Mise à jour: 20/12/2014 23:30
nuageux
nuageux
 Wind from ENE
Vent: ENE 7 km/h
Température: 8°C
Wind Chill: 7°C
Point de Rosée: 6°C
Humidité: 87%
Baromètre: 1037 hPa
Nuages: nuageux
Visibilité: 10 km
Nuages details: nuageux 1280 m
2014/12/20 22:30 LFBC 202230Z AUTO 06004KT 9999 BKN042 08/06 Q1037
LFPC - Creil/, France
Distance de la station: NNE 278km
Mise à jour: 20/12/2014 23:30
Couvert
Couvert
 Wind from SSO
Vent: SSO 6 km/h
Température: 6°C
Point de Rosée: 4°C
Humidité: 87%
Baromètre: 1032 hPa
Nuages: Couvert
Visibilité: 10 km
Nuages details: Quelques Nuages 1341 m
Couvert 3962 m
2014/12/20 22:30 LFPC 202230Z AUTO 20003KT 160V230 9999 FEW044 OVC130 06/04 Q1032
 
LFLB - Chambery/, France
Distance de la station: ESE 348km
Mise à jour: 20/12/2014 23:30
nuageux
nuageux
 Wind from N
Vent: N 15 km/h
Température: 7°C
Wind Chill: 4°C
Point de Rosée: 3°C
Humidité: 76%
Baromètre: 1033 hPa
Nuages: nuageux
Visibilité: 10 km
Nuages details: Quelques Nuages 1219 m
nuageux 1646 m
2014/12/20 22:30 LFLB 202230Z AUTO 35008KT 9999 FEW040 BKN054 07/03 Q1033
LFOK - Chalons/, France
Distance de la station: NE 287km
Mise à jour: 20/12/2014 23:30
Quelques Nuages
Quelques Nuages
 Wind from SO
Vent: SO 13 km/h
Température: 3°C
Wind Chill: -1°C
Point de Rosée: 2°C
Humidité: 93%
Baromètre: 1033 hPa
Nuages: Quelques Nuages
Visibilité: 10 km
Nuages details: Quelques Nuages 244 m
2014/12/20 22:30 LFOK 202230Z AUTO 23007KT 9999 FEW008 03/02 Q1033
 
LFOC - Chateaudun/, France
Distance de la station: N 137km
Mise à jour: 20/12/2014 23:30
Couvert
Couvert
 Wind from OSO
Vent: OSO 13 km/h
Température: 7°C
Wind Chill: 5°C
Point de Rosée: 5°C
Humidité: 87%
Baromètre: 1034 hPa
Nuages: Couvert
Visibilité: 10 km
Nuages details: Couvert 1341 m
2014/12/20 22:30 LFOC 202230Z AUTO 25007KT 9999 OVC044 07/05 Q1034
LFLX - Chateauroux/, France
Distance de la station: NE 4km
Mise à jour: 20/12/2014 23:30
Couvert
Couvert
 Wind from OSO
Vent: OSO 11 km/h
Température: 6°C
Wind Chill: 4°C
Point de Rosée: 4°C
Humidité: 87%
Baromètre: 1035 hPa
Nuages: Couvert
Visibilité: 10 km
Nuages details: Couvert 1250 m
2014/12/20 22:30 LFLX 202230Z AUTO 25006KT 9999 OVC041 06/04 Q1035
 
LFPG - Charles De Gaulle/, France
Distance de la station: NNE 252km
Mise à jour: 20/12/2014 23:30
Quelques Nuages
Quelques Nuages
 Wind from OSO
Vent: OSO 11 km/h
Température: 7°C
Wind Chill: 5°C
Point de Rosée: 5°C
Humidité: 87%
Baromètre: 1033 hPa
Nuages: Quelques Nuages
Visibilité: 10 km
Nuages details: Quelques Nuages 1433 m
2014/12/20 22:30 LFPG 202230Z 25006KT 9999 FEW047 07/05 Q1033 NOSIG
LFRC - Cherbourg/, France
Distance de la station: NO 390km
Mise à jour: 20/12/2014 23:30
Couvert
Couvert
 Wind from O
Vent: O 13 km/h
Température: 9°C
Wind Chill: 7°C
Point de Rosée: 5°C
Humidité: 76%
Baromètre: 1034 hPa
Nuages: Couvert
Visibilité: 10 km
Nuages details: nuageux 701 m
Couvert 975 m
2014/12/20 22:30 LFRC 202230Z AUTO 26007KT 9999 BKN023 OVC032 09/05 Q1034
 
LFLC - Clermont/, France
Distance de la station: SE 163km
Mise à jour: 20/12/2014 23:30
nuageux
nuageux
 Wind from calm
Vent: Vent calme
Température: 4°C
Point de Rosée: 2°C
Humidité: 87%
Baromètre: 1035 hPa
Nuages: nuageux
Visibilité: 10 km
Nuages details: Quelques Nuages 1006 m
nuageux 1219 m
2014/12/20 22:30 LFLC 202230Z 00000KT 9999 FEW033 BKN040 04/02 Q1035 NOSIG
LFBG - Cognac/, France
Distance de la station: SO 200km
Mise à jour: 20/12/2014 23:30
Couvert
Couvert
 Wind from OSO
Vent: OSO 4 km/h
Température: 8°C
Point de Rosée: 3°C
Humidité: 71%
Baromètre: 1037 hPa
Nuages: Couvert
Visibilité: 10 km
Nuages details: Couvert 1280 m
2014/12/20 22:30 LFBG 202230Z AUTO 24002KT 9999 OVC042 08/03 Q1037
 
LFBY - Dax/, France
Distance de la station: SSO 411km
Mise à jour: 20/12/2014 23:00
Couvert
Couvert
 Wind from NE
Vent: NE 7 km/h
Température: 10°C
Wind Chill: 9°C
Point de Rosée: 9°C
Humidité: 94%
Baromètre: 1036 hPa
Nuages: Couvert
Visibilité: 10 km
Nuages details: Couvert 1341 m
2014/12/20 22:00 LFBY 202200Z AUTO 05004KT 9999 // OVC044/// 10/09 Q1036
LFSD - Dijon/, France
Distance de la station: ENE 261km
Mise à jour: 20/12/2014 23:30
partiellement nuageux
partiellement nuageux
 Wind from OSO
Vent: OSO 11 km/h
Température: 6°C
Wind Chill: 4°C
Point de Rosée: 3°C
Humidité: 81%
Baromètre: 1034 hPa
Nuages: partiellement nuageux
Visibilité: 10 km
2014/12/20 22:30 LFSD 202230Z AUTO 24006KT 210V270 9999 NSC 06/03 Q1034
 
LFRD - Dinard/, France
Distance de la station: NO 342km
Mise à jour: 20/12/2014 23:30
Couvert
Couvert
 Wind from SO
Vent: SO 9 km/h
Température: 9°C
Wind Chill: 7°C
Point de Rosée: 6°C
Humidité: 82%
Baromètre: 1035 hPa
Nuages: Couvert
Visibilité: 10 km
Nuages details: Couvert 975 m
2014/12/20 22:30 LFRD 202230Z AUTO 23005KT 9999 OVC032 09/06 Q1035
LFGJ - Dole/, France
Distance de la station: E 286km
Mise à jour: 20/12/2014 23:30
Couvert
Couvert
 Wind from SO
Vent: SO 13 km/h
Température: 6°C
Wind Chill: 3°C
Point de Rosée: 3°C
Humidité: 81%
Baromètre: 1034 hPa
Nuages: Couvert
Visibilité: 10 km
Nuages details: nuageux 1341 m
Couvert 1890 m
2014/12/20 22:30 LFGJ 202230Z AUTO 22007KT 9999 BKN044 OVC062 06/03 Q1034
 
LFOE - Evreux/, France
Distance de la station: N 247km
Mise à jour: 20/12/2014 23:30
nuageux
nuageux
 Wind from O
Vent: O 7 km/h
Température: 6°C
Wind Chill: 4°C
Point de Rosée: 5°C
Humidité: 93%
Baromètre: 1033 hPa
Nuages: nuageux
Visibilité: 10 km
Nuages details: nuageux 1250 m
2014/12/20 22:30 LFOE 202230Z AUTO 27004KT 9999 BKN041 06/05 Q1033
LFMT - Frejorgues/, France
Distance de la station: SSE 403km
Mise à jour: 20/12/2014 23:30
clair
clair
 Wind from NNO
Vent: NNO 7 km/h
Température: 8°C
Wind Chill: 7°C
Point de Rosée: 2°C
Humidité: 66%
Baromètre: 1031 hPa
Récapitulatifs: clair
Visibilité: supérieure à 10 km
2014/12/20 22:30 LFMT 202230Z 34004KT CAVOK 08/02 Q1031 NOSIG
 
LFMI - Istres/, France
Distance de la station: SE 446km
Mise à jour: 20/12/2014 23:30
partiellement nuageux
partiellement nuageux
 Wind from NNO
Vent: NNO 44 km/h, Rafale: 70 km/h
Température: 9°C
Wind Chill: 4°C
Point de Rosée: 2°C
Humidité: 62%
Baromètre: 1029 hPa
Nuages: partiellement nuageux
Visibilité: 10 km
2014/12/20 22:30 LFMI 202230Z AUTO 34024G38KT 9999 NSC 09/02 Q1029
LFLS - Grenoble/, France
Distance de la station: ESE 323km
Mise à jour: 20/12/2014 23:30
Couvert
Couvert
 Wind from N
Vent: N 28 km/h
Température: 4°C
Wind Chill: -1°C
Point de Rosée: 1°C
Humidité: 81%
Baromètre: 1033 hPa
Nuages: Couvert
Visibilité: 10 km
Nuages details: Couvert 1341 m
2014/12/20 22:30 LFLS 202230Z AUTO 36015KT 9999 OVC044 04/01 Q1033
 
LFBH - La Rochelle/, France
Distance de la station: OSO 229km
Mise à jour: 20/12/2014 23:30
Couvert
Couvert
 Wind from calm
Vent: Vent calme
Température: 9°C
Point de Rosée: 3°C
Humidité: 66%
Baromètre: 1037 hPa
Nuages: Couvert
Visibilité: 10 km
Nuages details: Couvert 1189 m
2014/12/20 22:30 LFBH 202230Z AUTO 00000KT 9999 OVC039 09/03 Q1037
LFRI - La Roche Sur Yon/, France
Distance de la station: O 233km
Mise à jour: 20/12/2014 23:30
Couvert
Couvert
 Wind from calm
Vent: Vent calme
Température: 8°C
Point de Rosée: 4°C
Humidité: 76%
Baromètre: 1037 hPa
Nuages: Couvert
Visibilité: 10 km
Nuages details: Couvert 1097 m
2014/12/20 22:30 LFRI 202230Z AUTO 00000KT 9999 OVC036 08/04 Q1037
 
LFOH - Le Havre/, France
Distance de la station: NNO 323km
Mise à jour: 20/12/2014 23:30
nuageux
nuageux
 Wind from ONO
Vent: ONO 19 km/h
Température: 9°C
Wind Chill: 6°C
Point de Rosée: 4°C
Humidité: 71%
Baromètre: 1033 hPa
Nuages: nuageux
Visibilité: 10 km
Nuages details: Quelques Nuages 792 m
partiellement nuageux 1006 m
nuageux 1280 m
2014/12/20 22:30 LFOH 202230Z AUTO 30010KT 280V340 9999 FEW026 SCT033 BKN042 09/04 Q1033
LFRM - Le Mans/, France
Distance de la station: NO 166km
Mise à jour: 20/12/2014 23:30
Couvert
Couvert
 Wind from O
Vent: O 7 km/h
Température: 9°C
Wind Chill: 8°C
Point de Rosée: 6°C
Humidité: 82%
Baromètre: 1035 hPa
Nuages: Couvert
Visibilité: 10 km
Nuages details: Couvert 1189 m
2014/12/20 22:30 LFRM 202230Z AUTO 26004KT 230V290 9999 OVC039 09/06 Q1035
 
LFRJ - Landivisiau/, France
Distance de la station: ONO 476km
Mise à jour: 20/12/2014 23:30
Couvert
Couvert
 Wind from OSO
Vent: OSO 11 km/h
Température: 8°C
Wind Chill: 6°C
Point de Rosée: 7°C
Humidité: 93%
Baromètre: 1035 hPa
Nuages: Couvert
Visibilité: 10 km
Nuages details: Couvert 762 m
2014/12/20 22:30 LFRJ 202230Z AUTO 24006KT 9999 OVC025 08/07 Q1035
LFRO - Lannion/, France
Distance de la station: ONO 441km
Mise à jour: 20/12/2014 23:30
Couvert
Couvert
 Wind from SO
Vent: SO 11 km/h
Température: 9°C
Wind Chill: 7°C
Point de Rosée: 6°C
Humidité: 82%
Baromètre: 1035 hPa
Nuages: Couvert
Visibilité: 10 km
Nuages details: Couvert 701 m
2014/12/20 22:30 LFRO 202230Z AUTO 23006KT 9999 OVC023 09/06 Q1035
 
LFRL - Lanveoc/, France
Distance de la station: ONO 485km
Mise à jour: 20/12/2014 23:30
Couvert
Couvert
 Wind from O
Vent: O 6 km/h
Température: 9°C
Point de Rosée: 6°C
Humidité: 82%
Baromètre: 1036 hPa
Nuages: Couvert
Visibilité: 10 km
Nuages details: Couvert 853 m
2014/12/20 22:30 LFRL 202230Z AUTO 27003KT 9999 OVC028 09/06 Q1036
LFBL - Limoges/, France
Distance de la station: SSO 113km
Mise à jour: 20/12/2014 23:30
Couvert
Couvert
 Wind from O
Vent: O 7 km/h
Température: 5°C
Wind Chill: 3°C
Point de Rosée: 2°C
Humidité: 81%
Baromètre: 1035 hPa
Nuages: Couvert
Visibilité: 10 km
Nuages details: Couvert 975 m
2014/12/20 22:30 LFBL 202230Z AUTO 26004KT 9999 OVC032 05/02 Q1035
 
LFQQ - Lille/, France
Distance de la station: NNE 430km
Mise à jour: 20/12/2014 23:30
Quelques Nuages
Quelques Nuages
 Wind from O
Vent: O 11 km/h
Température: 4°C
Wind Chill: 1°C
Point de Rosée: 2°C
Humidité: 87%
Baromètre: 1030 hPa
Nuages: Quelques Nuages
Visibilité: 10 km
Nuages details: Quelques Nuages 1006 m
2014/12/20 22:30 LFQQ 202230Z 26006KT 9999 FEW033 04/02 Q1030 NOSIG
LFRH - Lorient/, France
Distance de la station: ONO 401km
Mise à jour: 20/12/2014 23:30
Couvert
Couvert
 Wind from variable
Vent: variable 6 km/h
Température: 9°C
Point de Rosée: 5°C
Humidité: 76%
Baromètre: 1036 hPa
Nuages: Couvert
Visibilité: 10 km
Nuages details: Couvert 1006 m
2014/12/20 22:30 LFRH 202230Z AUTO VRB03KT 9999 OVC033 09/05 Q1036
 
LFLY - Lyon/, France
Distance de la station: ESE 279km
Mise à jour: 20/12/2014 23:30
Couvert
Couvert
 Wind from variable
Vent: variable 4 km/h
Température: 5°C
Point de Rosée: 1°C
Humidité: 76%
Baromètre: 1035 hPa
Nuages: Couvert
Visibilité: 10 km
Nuages details: Couvert 1585 m
2014/12/20 22:30 LFLY 202230Z AUTO VRB02KT 9999 OVC052 05/01 Q1035
LFLL - Lyon/Satolas, France
Distance de la station: ESE 287km
Mise à jour: 20/12/2014 23:30
nuageux
nuageux
 Wind from NNO
Vent: NNO 9 km/h
Température: 5°C
Wind Chill: 3°C
Point de Rosée: 2°C
Humidité: 81%
Baromètre: 1035 hPa
Nuages: nuageux
Visibilité: 10 km
Nuages details: nuageux 1524 m
2014/12/20 22:30 LFLL 202230Z 33005KT 9999 BKN050 05/02 Q1035 NOSIG
 
LFSX - Luxeuil/, France
Distance de la station: ENE 366km
Mise à jour: 20/12/2014 23:30
nuageux
nuageux
 Wind from S
Vent: S 6 km/h
Température: 4°C
Point de Rosée: 3°C
Humidité: 93%
Baromètre: 1033 hPa
Nuages: nuageux
Visibilité: 10 km
Nuages details: Quelques Nuages 518 m
nuageux 823 m
nuageux 975 m
2014/12/20 22:30 LFSX 202230Z AUTO 19003KT 160V230 9999 FEW017 BKN027 BKN032 04/03 Q1033
LFJR - Marce/, France
Distance de la station: NO 134km
Mise à jour: 20/12/2014 23:30
Couvert
Couvert
 Wind from OSO
Vent: OSO 4 km/h
Température: 8°C
Point de Rosée: 6°C
Humidité: 87%
Baromètre: 1036 hPa
Nuages: Couvert
Visibilité: 10 km
Nuages details: Couvert 1189 m
2014/12/20 22:30 LFJR 202230Z AUTO 24002KT 9999 OVC039 08/06 Q1036
 
LFML - Marseille/, France
Distance de la station: SE 466km
Mise à jour: 20/12/2014 23:30
clair
clair
 Wind from NO
Vent: NO 37 km/h, Rafale: 56 km/h
Température: 9°C
Wind Chill: 4°C
Point de Rosée: 2°C
Humidité: 62%
Baromètre: 1028 hPa
Récapitulatifs: clair
Visibilité: supérieure à 10 km
2014/12/20 22:30 LFML 202230Z 31020G30KT CAVOK 09/02 Q1028 NOSIG
LFPM - Melun/, France
Distance de la station: NNE 213km
Mise à jour: 20/12/2014 23:30
partiellement nuageux
partiellement nuageux
 Wind from OSO
Vent: OSO 13 km/h
Température: 5°C
Wind Chill: 2°C
Point de Rosée: 4°C
Humidité: 93%
Baromètre: 1033 hPa
Nuages: partiellement nuageux
Visibilité: 10 km
2014/12/20 22:30 LFPM 202230Z AUTO 25007KT 9999 NSC 05/04 Q1033
 
LFJL - Metz-Nancy-Lorra/, France
Distance de la station: NE 416km
Mise à jour: 20/12/2014 23:30
Couvert
Couvert
 Wind from OSO
Vent: OSO 19 km/h
Température: 6°C
Wind Chill: 3°C
Point de Rosée: 3°C
Humidité: 81%
Baromètre: 1031 hPa
Nuages: Couvert
Visibilité: 10 km
Nuages details: Quelques Nuages 1158 m
Couvert 1707 m
2014/12/20 22:30 LFJL 202230Z AUTO 25010KT 9999 FEW038 OVC056 06/03 Q1031
LFBM - Mont-De-Marsan/, France
Distance de la station: SSO 365km
Mise à jour: 20/12/2014 23:30
Couvert
Couvert
 Wind from ENE
Vent: ENE 7 km/h
Température: 9°C
Wind Chill: 8°C
Point de Rosée: 6°C
Humidité: 82%
Baromètre: 1037 hPa
Nuages: Couvert
Visibilité: 10 km
Nuages details: partiellement nuageux 884 m
Couvert 1189 m
2014/12/20 22:30 LFBM 202230Z AUTO 06004KT 9999 SCT029 OVC039 09/06 Q1037
 
LFSO - Nancy/, France
Distance de la station: ENE 375km
Mise à jour: 20/12/2014 23:30
Couvert
Couvert
 Wind from O
Vent: O 13 km/h
Température: 5°C
Wind Chill: 2°C
Point de Rosée: 4°C
Humidité: 93%
Baromètre: 1031 hPa
Nuages: Couvert
Visibilité: 10 km
Nuages details: Quelques Nuages 396 m
Couvert 1372 m
2014/12/20 22:30 LFSO 202230Z AUTO 26007KT 9999 FEW013 OVC045 05/04 Q1031
LFRS - Nantes/, France
Distance de la station: O 252km
Mise à jour: 20/12/2014 23:30
Couvert
Couvert
 Wind from OSO
Vent: OSO 4 km/h
Température: 9°C
Point de Rosée: 5°C
Humidité: 76%
Baromètre: 1036 hPa
Nuages: Couvert
Visibilité: 10 km
Nuages details: Couvert 1128 m
2014/12/20 22:30 LFRS 202230Z 25002KT 9999 OVC037 09/05 Q1036 NOSIG
 
LFTW - Nimes/, France
Distance de la station: SE 402km
Mise à jour: 20/12/2014 23:30
partiellement nuageux
partiellement nuageux
 Wind from N
Vent: N 17 km/h
Température: 8°C
Wind Chill: 5°C
Point de Rosée: 1°C
Humidité: 62%
Baromètre: 1031 hPa
Nuages: partiellement nuageux
Visibilité: 10 km
2014/12/20 22:30 LFTW 202230Z AUTO 35009KT 9999 NSC 08/01 Q1031
LFMO - Orange/, France
Distance de la station: SE 387km
Mise à jour: 20/12/2014 23:30
partiellement nuageux
partiellement nuageux
 Wind from N
Vent: N 46 km/h
Température: 8°C
Wind Chill: 3°C
Point de Rosée: 0°C
Humidité: 57%
Baromètre: 1030 hPa
Nuages: partiellement nuageux
Visibilité: 10 km
2014/12/20 22:30 LFMO 202230Z AUTO 35025KT 9999 NSC 08/00 Q1030
 
LFOJ - Orleans/, France
Distance de la station: N 128km
Mise à jour: 20/12/2014 23:30
Couvert
Couvert
 Wind from OSO
Vent: OSO 11 km/h
Température: 7°C
Wind Chill: 5°C
Point de Rosée: 5°C
Humidité: 87%
Baromètre: 1034 hPa
Nuages: Couvert
Visibilité: 10 km
Nuages details: Couvert 1280 m
2014/12/20 22:30 LFOJ 202230Z AUTO 25006KT 9999 OVC042 07/05 Q1034
LFPB - Paris/, France
Distance de la station: NNE 246km
Mise à jour: 20/12/2014 23:30
Quelques Nuages
Quelques Nuages
 Wind from O
Vent: O 11 km/h
Température: 6°C
Wind Chill: 4°C
Point de Rosée: 4°C
Humidité: 87%
Baromètre: 1033 hPa
Nuages: Quelques Nuages
Visibilité: 10 km
Nuages details: Quelques Nuages 1494 m
2014/12/20 22:30 LFPB 202230Z AUTO 27006KT 9999 FEW049 06/04 Q1033
 
LFPO - Paris/Orly/, France
Distance de la station: NNE 218km
Mise à jour: 20/12/2014 23:30
partiellement nuageux
partiellement nuageux
 Wind from O
Vent: O 11 km/h
Température: 6°C
Wind Chill: 4°C
Point de Rosée: 4°C
Humidité: 87%
Baromètre: 1033 hPa
Nuages: partiellement nuageux
Visibilité: 10 km
Nuages details: partiellement nuageux 1433 m
2014/12/20 22:30 LFPO 202230Z 27006KT 9999 SCT047 06/04 Q1033 NOSIG
LFMP - Perpignan/, France
Distance de la station: SSE 465km
Mise à jour: 20/12/2014 23:30
partiellement nuageux
partiellement nuageux
 Wind from NO
Vent: NO 35 km/h, Rafale: 59 km/h
Température: 12°C
Point de Rosée: 6°C
Humidité: 67%
Baromètre: 1031 hPa
Nuages: partiellement nuageux
Visibilité: 10 km
2014/12/20 22:30 LFMP 202230Z AUTO 31019G32KT 9999 NSC 12/06 Q1031
 
LFBI - Poitiers/, France
Distance de la station: OSO 108km
Mise à jour: 20/12/2014 23:30
Couvert
Couvert
 Wind from O
Vent: O 6 km/h
Température: 8°C
Point de Rosée: 4°C
Humidité: 76%
Baromètre: 1036 hPa
Nuages: Couvert
Visibilité: 10 km
Nuages details: Couvert 1097 m
2014/12/20 22:30 LFBI 202230Z AUTO 27003KT 9999 OVC036 08/04 Q1036
LFRQ - Quimper/, France
Distance de la station: ONO 458km
Mise à jour: 20/12/2014 23:30
Couvert
Couvert
 Wind from variable
Vent: variable 4 km/h
Température: 8°C
Point de Rosée: 6°C
Humidité: 87%
Baromètre: 1036 hPa
Nuages: Couvert
Visibilité: 10 km
Nuages details: Couvert 914 m
2014/12/20 22:30 LFRQ 202230Z AUTO VRB02KT 9999 OVC030 08/06 Q1036
 
LFRN - Rennes/, France
Distance de la station: ONO 291km
Mise à jour: 20/12/2014 23:30
Couvert
Couvert
 Wind from SO
Vent: SO 7 km/h
Température: 9°C
Wind Chill: 8°C
Point de Rosée: 6°C
Humidité: 82%
Baromètre: 1036 hPa
Nuages: Couvert
Visibilité: 10 km
Nuages details: Couvert 1006 m
2014/12/20 22:30 LFRN 202230Z AUTO 23004KT 200V260 9999 OVC033 09/06 Q1036
LFCR - Rodez/, France
Distance de la station: SSE 277km
Mise à jour: 20/12/2014 23:30
Couvert
Couvert
 Wind from NO
Vent: NO 11 km/h
Température: 4°C
Wind Chill: 1°C
Point de Rosée: 1°C
Humidité: 81%
Baromètre: 1034 hPa
Nuages: Couvert
Visibilité: 10 km
Nuages details: Couvert 792 m
2014/12/20 22:30 LFCR 202230Z AUTO 31006KT 9999 OVC026 04/01 Q1034
 
LFYR - Romorantin/, France
Distance de la station: N 56km
Mise à jour: 20/12/2014 23:30
Couvert
Couvert
 Wind from variable
Vent: variable 4 km/h
Température: 7°C
Point de Rosée: 6°C
Humidité: 93%
Baromètre: 1035 hPa
Nuages: Couvert
Visibilité: 10 km
Nuages details: Quelques Nuages 1128 m
Couvert 1341 m
2014/12/20 22:30 LFYR 202230Z AUTO VRB02KT 9999 FEW037 OVC044 07/06 Q1035
LFOP - Rouen/, France
Distance de la station: N 286km
Mise à jour: 20/12/2014 23:30
nuageux
nuageux
 Wind from O
Vent: O 9 km/h
Température: 4°C
Wind Chill: 2°C
Point de Rosée: 2°C
Humidité: 87%
Baromètre: 1033 hPa
Nuages: nuageux
Visibilité: 10 km
Nuages details: nuageux 1097 m
2014/12/20 22:30 LFOP 202230Z AUTO 28005KT 9999 BKN036 04/02 Q1033
 
LFMY - Salon/, France
Distance de la station: SE 446km
Mise à jour: 20/12/2014 23:30
partiellement nuageux
partiellement nuageux
 Wind from NO
Vent: NO 30 km/h, Rafale: 52 km/h
Température: 8°C
Wind Chill: 4°C
Point de Rosée: 1°C
Humidité: 62%
Baromètre: 1028 hPa
Nuages: partiellement nuageux
Visibilité: 10 km
2014/12/20 22:30 LFMY 202230Z AUTO 32016G28KT 280V350 9999 NSC 08/01 Q1028
LFST - Strasbourg/, France
Distance de la station: ENE 483km
Mise à jour: 20/12/2014 23:30
partiellement nuageux
partiellement nuageux
 Wind from SO
Vent: SO 13 km/h
Température: 4°C
Wind Chill: 1°C
Point de Rosée: 2°C
Humidité: 87%
Baromètre: 1031 hPa
Nuages: partiellement nuageux
Visibilité: 10 km
2014/12/20 22:30 LFST 202230Z AUTO 22007KT 9999 NSC 04/02 Q1031
 
LFRT - Saint-Brieuc/, France
Distance de la station: ONO 388km
Mise à jour: 20/12/2014 23:00
Couvert
Couvert
 Wind from O
Vent: O 6 km/h
Température: 8°C
Point de Rosée: 6°C
Humidité: 87%
Baromètre: 1035 hPa
Nuages: Couvert
Visibilité: 10 km
Nuages details: Couvert 732 m
2014/12/20 22:00 LFRT 202200Z AUTO 27003KT 9999 OVC024 08/06 Q1035
LFSI - St. Dizier/, France
Distance de la station: NE 313km
Mise à jour: 20/12/2014 23:30
Couvert
Couvert
 Wind from OSO
Vent: OSO 9 km/h
Température: 5°C
Wind Chill: 3°C
Point de Rosée: 4°C
Humidité: 93%
Baromètre: 1033 hPa
Nuages: Couvert
Visibilité: 10 km
Nuages details: nuageux 1463 m
Couvert 6096 m
2014/12/20 22:30 LFSI 202230Z AUTO 24005KT 9999 BKN048 OVC200 05/04 Q1033
 
LFMH - St Etienne/, France
Distance de la station: SE 247km
Mise à jour: 20/12/2014 23:30
nuageux
nuageux
 Wind from variable
Vent: variable 4 km/h
Température: 4°C
Point de Rosée: 1°C
Humidité: 81%
Baromètre: 1035 hPa
Nuages: nuageux
Visibilité: 10 km
Nuages details: nuageux 1250 m
2014/12/20 22:30 LFMH 202230Z AUTO VRB02KT 9999 BKN041 04/01 Q1035
LFRG - St Gatien/, France
Distance de la station: NNO 305km
Mise à jour: 20/12/2014 23:30
partiellement nuageux
partiellement nuageux
 Wind from NO
Vent: NO 11 km/h
Température: 8°C
Wind Chill: 6°C
Point de Rosée: 5°C
Humidité: 82%
Baromètre: 1034 hPa
Nuages: partiellement nuageux
Visibilité: 10 km
Nuages details: Quelques Nuages 732 m
partiellement nuageux 1219 m
2014/12/20 22:30 LFRG 202230Z AUTO 32006KT 280V350 9999 FEW024 SCT040 08/05 Q1034
 
LFRZ - St. Nazaire/, France
Distance de la station: ONO 297km
Mise à jour: 20/12/2014 23:30
Couvert
Couvert
 Wind from variable
Vent: variable 2 km/h
Température: 10°C
Point de Rosée: 5°C
Humidité: 71%
Baromètre: 1036 hPa
Nuages: Couvert
Visibilité: 10 km
Nuages details: Couvert 1067 m
2014/12/20 22:30 LFRZ 202230Z AUTO VRB01KT 9999 OVC035 10/05 Q1036
LFLN - Saint Yan/, France
Distance de la station: ESE 184km
Mise à jour: 20/12/2014 23:30
Couvert
Couvert
 Wind from SO
Vent: SO 4 km/h
Température: 5°C
Point de Rosée: 3°C
Humidité: 87%
Baromètre: 1035 hPa
Nuages: Couvert
Visibilité: 10 km
Nuages details: Quelques Nuages 1311 m
Couvert 1585 m
2014/12/20 22:30 LFLN 202230Z AUTO 22002KT 9999 FEW043 OVC052 05/03 Q1035
 
LFBT - Tarbes/, France
Distance de la station: SSO 427km
Mise à jour: 20/12/2014 23:30
Couvert
Couvert
 Wind from variable
Vent: variable 4 km/h
Température: 8°C
Point de Rosée: 7°C
Humidité: 93%
Baromètre: 1036 hPa
Nuages: Couvert
Visibilité: 10 km
Nuages details: Couvert 427 m
2014/12/20 22:30 LFBT 202230Z AUTO VRB02KT 9999 OVC014 08/07 Q1036
LFSL - Toul/, France
Distance de la station: NE 356km
Mise à jour: 20/12/2014 23:30
Couvert
Couvert
 Wind from N
Vent: N 9 km/h
Température: 6°C
Wind Chill: 4°C
Point de Rosée: 3°C
Humidité: 81%
Baromètre: 1036 hPa
Nuages: Couvert
Visibilité: 10 km
Nuages details: Couvert 914 m
2014/12/20 22:30 LFSL 202230Z AUTO 35005KT 9999 OVC030 06/03 Q1036
 
LFBO - Toulouse/, France
Distance de la station: S 357km
Mise à jour: 20/12/2014 23:30
partiellement nuageux
partiellement nuageux
 Wind from ONO
Vent: ONO 13 km/h
Température: 6°C
Wind Chill: 3°C
Point de Rosée: 3°C
Humidité: 81%
Baromètre: 1036 hPa
Nuages: partiellement nuageux
Visibilité: 10 km
2014/12/20 22:30 LFBO 202230Z AUTO 30007KT 9999 NSC 06/03 Q1036
LFOT - Tours/, France
Distance de la station: NO 100km
Mise à jour: 20/12/2014 23:30
nuageux
nuageux
 Wind from OSO
Vent: OSO 6 km/h
Température: 8°C
Point de Rosée: 6°C
Humidité: 87%
Baromètre: 1035 hPa
Nuages: nuageux
Visibilité: 10 km
Nuages details: nuageux 1097 m
2014/12/20 22:30 LFOT 202230Z 25003KT 9999 BKN036 08/06 Q1035 NOSIG
 
LFPN - Toussus Le Noble/, France
Distance de la station: N 217km
Mise à jour: 20/12/2014 23:30
partiellement nuageux
partiellement nuageux
 Wind from OSO
Vent: OSO 13 km/h
Température: 6°C
Wind Chill: 3°C
Point de Rosée: 5°C
Humidité: 93%
Baromètre: 1033 hPa
Nuages: partiellement nuageux
Visibilité: 10 km
Nuages details: partiellement nuageux 1372 m
2014/12/20 22:30 LFPN 202230Z AUTO 25007KT 9999 SCT045 06/05 Q1033
LFPV - Villacoublay/, France
Distance de la station: N 220km
Mise à jour: 20/12/2014 23:30
Quelques Nuages
Quelques Nuages
 Wind from O
Vent: O 11 km/h
Température: 6°C
Wind Chill: 4°C
Point de Rosée: 5°C
Humidité: 93%
Baromètre: 1033 hPa
Nuages: Quelques Nuages
Visibilité: 10 km
Nuages details: Quelques Nuages 1372 m
2014/12/20 22:30 LFPV 202230Z AUTO 26006KT 9999 FEW045 06/05 Q1033